Time;durP1;ratioP1;P1;durP2;ratioP2;P2;SDS_P1;SDS_P2;PMS_P1;PMS_P2;Temp;Humidity;BMP_temperature;BMP_pressure;BME280_temperature;BME280_humidity;BME280_pressure;Samples;Min_cycle;Max_cycle;Signal;HPM_P1;HPM_P2
2023/03/07 00:01:33;;;;;;;5.13;4.03;;;5.00;99.90;;;;;;5007214;28;20203;-63
2023/03/07 00:04:00;;;;;;;5.30;3.43;;;4.90;99.90;;;;;;5014903;28;20197;-63
2023/03/07 00:06:27;;;;;;;5.17;3.10;;;5.00;99.90;;;;;;5018155;28;20231;-63
2023/03/07 00:09:00;;;;;;;6.03;3.57;;;5.00;99.90;;;;;;4997463;28;20201;-63
2023/03/07 00:11:27;;;;;;;4.90;3.30;;;4.90;99.90;;;;;;5020966;28;20209;-63
2023/03/07 00:13:54;;;;;;;4.83;2.67;;;4.90;99.90;;;;;;5017897;28;20296;-68
2023/03/07 00:16:23;;;;;;;3.10;2.17;;;4.80;99.90;;;;;;5018572;28;20204;-63
2023/03/07 00:18:50;;;;;;;6.87;2.30;;;4.80;99.90;;;;;;5006407;28;20713;-63
2023/03/07 00:21:19;;;;;;;3.13;2.20;;;4.80;99.90;;;;;;5017358;28;20240;-63
2023/03/07 00:23:47;;;;;;;2.67;1.87;;;4.80;99.90;;;;;;5016931;28;20665;-65
2023/03/07 00:26:20;;;;;;;3.43;1.50;;;4.80;99.90;;;;;;5017231;28;20338;-63
2023/03/07 00:28:48;;;;;;;2.70;1.80;;;4.80;99.90;;;;;;5016871;28;20201;-63
2023/03/07 00:31:16;;;;;;;2.97;2.10;;;4.80;99.90;;;;;;5018215;28;20197;-62
2023/03/07 00:33:43;;;;;;;3.40;2.17;;;4.70;99.90;;;;;;5017613;28;20209;-61
2023/03/07 00:36:16;;;;;;;3.33;1.90;;;4.70;99.90;;;;;;5016875;28;20225;-61
2023/03/07 00:38:43;;;;;;;3.20;1.40;;;4.70;99.90;;;;;;5015930;28;20221;-64
2023/03/07 00:41:13;;;;;;;2.43;1.67;;;4.70;99.90;;;;;;5017910;28;20283;-62
2023/03/07 00:43:40;;;;;;;6.80;1.57;;;4.70;99.90;;;;;;5017597;28;20236;-61
2023/03/07 00:46:08;;;;;;;1.50;1.37;;;4.70;99.90;;;;;;5017254;28;20271;-62
2023/03/07 00:48:37;;;;;;;3.00;1.50;;;4.70;99.90;;;;;;5018573;28;20248;-62
2023/03/07 00:51:06;;;;;;;2.37;1.67;;;4.70;99.90;;;;;;5018385;28;20205;-62
2023/03/07 00:53:34;;;;;;;2.30;1.53;;;4.70;99.90;;;;;;5019458;28;20201;-62
2023/03/07 00:56:19;;;;;;;2.10;1.17;;;4.60;99.90;;;;;;5018176;28;20343;-62
2023/03/07 00:58:46;;;;;;;1.87;1.40;;;4.60;99.90;;;;;;5011145;28;20953;-62
2023/03/07 01:01:16;;;;;;;3.20;1.50;;;4.60;99.90;;;;;;5018220;28;20270;-62
2023/03/07 01:03:44;;;;;;;1.73;1.37;;;4.60;99.90;;;;;;5022339;28;20637;-62
2023/03/07 01:06:16;;;;;;;4.60;1.40;;;4.60;99.90;;;;;;5019366;28;20193;-62
2023/03/07 01:08:43;;;;;;;1.10;1.00;;;4.60;99.90;;;;;;5020788;28;20224;-62
2023/03/07 01:11:12;;;;;;;2.30;1.53;;;4.70;99.90;;;;;;5021951;28;20208;-62
2023/03/07 01:13:39;;;;;;;2.33;1.37;;;4.70;99.90;;;;;;5003316;28;20606;-62
2023/03/07 01:16:14;;;;;;;2.73;1.30;;;4.70;99.90;;;;;;5020265;28;20204;-62
2023/03/07 01:18:42;;;;;;;2.03;1.50;;;4.60;99.90;;;;;;5021662;28;20228;-61
2023/03/07 01:21:16;;;;;;;3.53;1.50;;;4.60;99.90;;;;;;5023052;28;20303;-63
2023/03/07 01:23:44;;;;;;;4.70;1.93;;;4.60;99.90;;;;;;5019203;28;20294;-62
2023/03/07 01:26:20;;;;;;;2.23;1.80;;;4.60;99.90;;;;;;5020453;28;20243;-62
2023/03/07 01:28:48;;;;;;;2.80;1.90;;;4.70;99.90;;;;;;5020558;28;20299;-63
2023/03/07 01:31:15;;;;;;;3.10;2.47;;;4.70;99.90;;;;;;5021819;28;20206;-62
2023/03/07 01:33:42;;;;;;;4.83;2.90;;;4.70;99.90;;;;;;5003348;28;20545;-62
2023/03/07 01:36:20;;;;;;;2.97;2.37;;;4.70;99.90;;;;;;5022280;28;20733;-62
2023/03/07 01:38:48;;;;;;;4.87;3.40;;;4.80;99.90;;;;;;5020451;28;20213;-62
2023/03/07 01:41:15;;;;;;;4.27;3.87;;;4.80;99.90;;;;;;5021034;28;20609;-62
2023/03/07 01:43:42;;;;;;;5.27;3.60;;;4.70;99.90;;;;;;5018232;28;20193;-62
2023/03/07 01:46:25;;;;;;;5.07;4.43;;;4.80;99.90;;;;;;5020906;28;20656;-63
2023/03/07 01:49:20;;;;;;;5.87;4.50;;;4.80;99.90;;;;;;5004377;28;20193;-63
2023/03/07 01:51:51;;;;;;;6.73;4.90;;;4.80;99.90;;;;;;5011664;28;20763;-62
2023/03/07 01:54:21;;;;;;;6.67;5.23;;;4.80;99.90;;;;;;5002543;28;20722;-63
2023/03/07 01:56:48;;;;;;;7.40;5.73;;;4.80;99.90;;;;;;5020346;28;20660;-62
2023/03/07 01:59:21;;;;;;;7.37;5.97;;;4.80;99.90;;;;;;5019994;28;20680;-62
2023/03/07 02:01:49;;;;;;;7.93;6.33;;;4.80;99.90;;;;;;5020162;28;20201;-62
2023/03/07 02:04:42;;;;;;;7.83;6.07;;;4.90;99.90;;;;;;5019426;28;20637;-62
2023/03/07 02:07:09;;;;;;;9.13;7.20;;;4.90;99.90;;;;;;5019535;28;20653;-62
2023/03/07 02:09:37;;;;;;;10.87;7.33;;;4.90;99.90;;;;;;5018635;28;20626;-62
2023/03/07 02:12:07;;;;;;;11.80;7.80;;;4.90;99.90;;;;;;5021436;28;20217;-62
2023/03/07 02:14:34;;;;;;;11.93;8.33;;;4.90;99.90;;;;;;5019060;28;20200;-63
2023/03/07 02:17:02;;;;;;;10.57;8.33;;;4.90;99.90;;;;;;5003188;28;20244;-62
2023/03/07 02:19:45;;;;;;;11.10;8.33;;;4.90;99.90;;;;;;5020783;28;20229;-62
2023/03/07 02:22:16;;;;;;;11.13;7.53;;;4.90;99.90;;;;;;5015980;28;20247;-62
2023/03/07 02:24:57;;;;;;;11.10;8.17;;;4.90;99.90;;;;;;5018145;28;20201;-63
2023/03/07 02:27:26;;;;;;;12.03;9.20;;;4.90;99.90;;;;;;5018318;28;20245;-62
2023/03/07 02:29:53;;;;;;;11.50;8.47;;;5.00;99.90;;;;;;5020674;28;20212;-62
2023/03/07 02:32:20;;;;;;;12.30;8.87;;;4.90;99.90;;;;;;5020536;28;20262;-63
2023/03/07 02:34:47;;;;;;;11.43;8.10;;;5.00;99.90;;;;;;5018298;28;20210;-62
2023/03/07 02:37:14;;;;;;;10.57;8.30;;;5.00;99.90;;;;;;5020944;28;20212;-63
2023/03/07 02:39:43;;;;;;;14.37;8.30;;;5.00;99.90;;;;;;5019148;28;20225;-63
2023/03/07 02:42:31;;;;;;;10.87;8.60;;;5.00;99.90;;;;;;5002400;28;20304;-63
2023/03/07 02:45:00;;;;;;;11.07;7.73;;;5.00;99.90;;;;;;5018532;28;20202;-63
2023/03/07 02:47:27;;;;;;;10.47;7.27;;;5.00;99.90;;;;;;5021209;28;20223;-63
2023/03/07 02:49:54;;;;;;;10.17;8.00;;;5.00;99.90;;;;;;5002564;28;20204;-63
2023/03/07 02:52:21;;;;;;;8.93;7.43;;;5.00;99.90;;;;;;5016677;28;20205;-63
2023/03/07 02:54:48;;;;;;;8.90;7.07;;;4.90;99.90;;;;;;4999741;28;20262;-63
2023/03/07 02:57:15;;;;;;;10.97;6.83;;;4.90;99.90;;;;;;5019363;28;20421;-63
2023/03/07 02:59:42;;;;;;;11.13;7.23;;;4.90;99.90;;;;;;5019674;28;20245;-63
2023/03/07 03:02:09;;;;;;;9.07;6.67;;;4.90;99.90;;;;;;5019068;28;20701;-65
2023/03/07 03:04:36;;;;;;;9.63;7.30;;;4.90;99.90;;;;;;5017084;28;20228;-63
2023/03/07 03:07:03;;;;;;;9.87;6.90;;;4.90;99.90;;;;;;5020443;28;20205;-63
2023/03/07 03:09:30;;;;;;;9.97;7.10;;;5.10;99.90;;;;;;5016573;28;20237;-63
2023/03/07 03:11:57;;;;;;;7.57;5.70;;;5.00;99.90;;;;;;5018848;28;20649;-63
2023/03/07 03:14:24;;;;;;;8.33;5.63;;;5.00;99.90;;;;;;5000129;28;20252;-63
2023/03/07 03:16:52;;;;;;;7.97;5.60;;;4.90;99.90;;;;;;5019700;28;20281;-63
2023/03/07 03:19:19;;;;;;;5.97;4.70;;;4.90;99.90;;;;;;5017318;28;20222;-62
2023/03/07 03:21:47;;;;;;;8.13;4.70;;;4.90;99.90;;;;;;5016289;28;20228;-62
2023/03/07 03:24:14;;;;;;;8.73;4.93;;;4.80;99.90;;;;;;5015594;28;20280;-63
2023/03/07 03:26:41;;;;;;;6.53;4.90;;;4.80;99.90;;;;;;5018380;28;20683;-63
2023/03/07 03:29:08;;;;;;;6.23;4.23;;;4.80;99.90;;;;;;5018948;28;20264;-62
2023/03/07 03:31:35;;;;;;;6.13;3.70;;;4.70;99.90;;;;;;5018649;28;20259;-63
2023/03/07 03:34:04;;;;;;;5.50;4.07;;;4.80;99.90;;;;;;5001360;28;20629;-63
2023/03/07 03:36:30;;;;;;;5.10;3.80;;;4.70;99.90;;;;;;5003091;28;20585;-62
2023/03/07 03:38:58;;;;;;;6.60;4.07;;;4.70;99.90;;;;;;5001012;28;20216;-62
2023/03/07 03:41:25;;;;;;;8.10;4.27;;;4.70;99.90;;;;;;5017470;28;20253;-62
2023/03/07 03:43:53;;;;;;;5.53;3.47;;;4.70;99.90;;;;;;5016485;28;20198;-62
2023/03/07 03:46:20;;;;;;;6.07;4.40;;;4.70;99.90;;;;;;5017627;28;20626;-62
2023/03/07 03:48:52;;;;;;;6.47;4.10;;;4.70;99.90;;;;;;5017980;28;20206;-64
2023/03/07 03:51:19;;;;;;;9.67;4.33;;;4.70;99.90;;;;;;5018965;28;20205;-67
2023/03/07 03:53:46;;;;;;;5.83;3.97;;;4.70;99.90;;;;;;5016970;28;20223;-63
2023/03/07 03:56:20;;;;;;;7.87;4.00;;;4.70;99.90;;;;;;5016158;28;20213;-63
2023/03/07 03:58:54;;;;;;;7.27;3.60;;;4.70;99.90;;;;;;5017249;28;20306;-62
2023/03/07 04:01:23;;;;;;;5.57;3.90;;;4.70;99.90;;;;;;5017835;28;20582;-63
2023/03/07 04:03:52;;;;;;;5.10;3.40;;;4.60;99.90;;;;;;5016304;28;20288;-63
2023/03/07 04:06:22;;;;;;;5.50;3.30;;;4.70;99.90;;;;;;5019647;28;20284;-63
2023/03/07 04:08:50;;;;;;;5.13;3.87;;;4.60;99.90;;;;;;5016616;28;20201;-63
2023/03/07 04:11:18;;;;;;;4.57;2.70;;;4.70;99.90;;;;;;5017276;28;20209;-63
2023/03/07 04:13:44;;;;;;;4.60;3.80;;;4.60;99.90;;;;;;5016962;28;20691;-63
2023/03/07 04:16:12;;;;;;;5.50;2.80;;;4.70;99.90;;;;;;5015680;28;20661;-63
2023/03/07 04:18:39;;;;;;;4.67;3.50;;;4.60;99.90;;;;;;5018241;28;20343;-63
2023/03/07 04:21:06;;;;;;;3.83;3.13;;;4.60;99.90;;;;;;5017960;28;20311;-63
2023/03/07 04:23:33;;;;;;;6.00;4.17;;;4.60;99.90;;;;;;5000013;28;20884;-63
2023/03/07 04:26:02;;;;;;;5.17;3.10;;;4.70;99.90;;;;;;5000899;28;20209;-63
2023/03/07 04:28:44;;;;;;;3.73;2.77;;;4.70;99.90;;;;;;5017481;28;20229;-64
2023/03/07 04:31:16;;;;;;;6.87;3.10;;;4.70;99.90;;;;;;5002817;28;20204;-63
2023/03/07 04:33:44;;;;;;;7.43;4.30;;;4.70;99.90;;;;;;5005232;28;20211;-63
2023/03/07 04:36:12;;;;;;;3.67;2.93;;;4.80;99.90;;;;;;4999912;28;20284;-66
2023/03/07 04:38:39;;;;;;;4.20;2.53;;;4.70;99.90;;;;;;5018047;28;20208;-63
2023/03/07 04:41:09;;;;;;;5.43;2.80;;;4.70;99.90;;;;;;5017411;28;20220;-63
2023/03/07 04:43:36;;;;;;;6.53;3.00;;;4.70;99.90;;;;;;4985138;28;20198;-62
2023/03/07 04:46:03;;;;;;;4.67;2.90;;;4.70;99.90;;;;;;5017971;28;20287;-63
2023/03/07 04:48:30;;;;;;;6.00;3.17;;;4.70;99.90;;;;;;5018859;28;20263;-63
2023/03/07 04:50:57;;;;;;;3.97;2.80;;;4.80;99.90;;;;;;5019151;28;20211;-65
2023/03/07 04:53:24;;;;;;;4.17;3.10;;;4.60;99.90;;;;;;5016397;28;20234;-63
2023/03/07 04:56:04;;;;;;;3.60;2.70;;;4.60;99.90;;;;;;5015655;28;20227;-61
2023/03/07 04:58:32;;;;;;;4.87;2.60;;;4.70;99.90;;;;;;4999640;28;20213;-60
2023/03/07 05:01:00;;;;;;;3.43;2.87;;;4.70;99.90;;;;;;5000301;28;20227;-62
2023/03/07 05:03:28;;;;;;;3.83;2.67;;;4.80;99.90;;;;;;5016948;28;20199;-60
2023/03/07 05:05:59;;;;;;;6.17;2.80;;;4.70;99.90;;;;;;5015064;28;20247;-59
2023/03/07 05:08:26;;;;;;;5.00;3.33;;;4.70;99.90;;;;;;5015702;28;20202;-62
2023/03/07 05:10:53;;;;;;;6.77;3.67;;;4.70;99.90;;;;;;5019401;28;20235;-59
2023/03/07 05:13:20;;;;;;;5.73;3.67;;;4.70;99.90;;;;;;5017441;28;20209;-62
2023/03/07 05:15:52;;;;;;;5.77;3.33;;;4.60;99.90;;;;;;5017542;28;20259;-59
2023/03/07 05:18:19;;;;;;;3.37;2.70;;;4.60;99.90;;;;;;5016476;28;20228;-60
2023/03/07 05:20:47;;;;;;;6.53;3.50;;;4.70;99.90;;;;;;5016645;28;20228;-60
2023/03/07 05:23:14;;;;;;;8.30;3.50;;;4.70;99.90;;;;;;5011328;28;20204;-60
2023/03/07 05:25:40;;;;;;;4.17;2.60;;;4.90;99.90;;;;;;5016167;28;20261;-60
2023/03/07 05:28:09;;;;;;;6.23;3.07;;;5.00;99.90;;;;;;5015736;28;20244;-61
2023/03/07 05:30:36;;;;;;;6.17;3.00;;;5.00;99.90;;;;;;5016787;28;20209;-60
2023/03/07 05:33:03;;;;;;;4.87;3.47;;;5.00;99.90;;;;;;5016270;28;20606;-60
2023/03/07 05:35:30;;;;;;;6.67;3.70;;;5.00;99.90;;;;;;5013412;28;20229;-60
2023/03/07 05:37:57;;;;;;;6.13;3.50;;;5.00;99.90;;;;;;5019099;28;20205;-60
2023/03/07 05:40:23;;;;;;;4.30;2.97;;;5.10;99.90;;;;;;5017746;28;20228;-60
2023/03/07 05:42:50;;;;;;;6.33;3.20;;;5.20;99.90;;;;;;5020846;28;20283;-61
2023/03/07 05:45:19;;;;;;;4.50;3.50;;;5.10;99.90;;;;;;5016762;28;20719;-61
2023/03/07 05:47:46;;;;;;;4.63;3.13;;;5.10;99.90;;;;;;5011142;28;20288;-61
2023/03/07 05:50:13;;;;;;;4.87;3.43;;;5.10;99.90;;;;;;5022759;28;20267;-60
2023/03/07 05:52:40;;;;;;;5.87;3.87;;;5.00;99.90;;;;;;5022222;28;20725;-60
2023/03/07 05:55:07;;;;;;;6.63;3.50;;;4.80;99.90;;;;;;5021503;28;20232;-61
2023/03/07 05:57:34;;;;;;;5.93;3.80;;;4.80;99.90;;;;;;5021151;28;20306;-60
2023/03/07 06:00:01;;;;;;;4.83;3.80;;;4.70;99.90;;;;;;5019694;28;20232;-60
2023/03/07 06:02:28;;;;;;;4.97;3.80;;;4.70;99.90;;;;;;5021177;28;20421;-60
2023/03/07 06:04:55;;;;;;;6.10;3.77;;;4.70;99.90;;;;;;5003468;28;20193;-60
2023/03/07 06:07:22;;;;;;;6.07;3.37;;;4.80;99.90;;;;;;5022062;28;20236;-60
2023/03/07 06:09:49;;;;;;;5.00;3.50;;;4.80;99.90;;;;;;5017392;28;20213;-60
2023/03/07 06:12:15;;;;;;;5.93;4.17;;;4.70;99.90;;;;;;5017853;28;20219;-60
2023/03/07 06:14:42;;;;;;;8.00;4.00;;;4.60;99.90;;;;;;5020334;28;20639;-60
2023/03/07 06:17:09;;;;;;;6.30;4.00;;;4.50;99.90;;;;;;5004163;28;20244;-61
2023/03/07 06:19:36;;;;;;;4.63;3.73;;;4.50;99.90;;;;;;5014341;28;20220;-60
2023/03/07 06:22:03;;;;;;;5.70;3.43;;;4.50;99.90;;;;;;5019741;28;20304;-60
2023/03/07 06:24:30;;;;;;;4.93;3.57;;;4.40;99.90;;;;;;5012797;28;20201;-61
2023/03/07 06:26:58;;;;;;;5.20;4.17;;;4.40;99.90;;;;;;4660232;28;10000075;-61
2023/03/07 06:29:25;;;;;;;7.00;3.70;;;4.20;99.90;;;;;;5009509;28;21240;-61
2023/03/07 06:31:52;;;;;;;5.83;4.00;;;4.40;99.90;;;;;;5015118;28;20917;-62
2023/03/07 06:34:19;;;;;;;4.87;3.90;;;4.40;99.90;;;;;;4994442;28;20212;-61
2023/03/07 06:36:47;;;;;;;7.17;4.27;;;4.30;99.90;;;;;;5010846;28;20216;-62
2023/03/07 06:39:19;;;;;;;5.80;4.10;;;4.40;99.90;;;;;;4993706;28;20214;-63
2023/03/07 06:41:48;;;;;;;5.97;3.60;;;4.40;99.90;;;;;;5015810;28;20217;-62
2023/03/07 06:44:16;;;;;;;5.13;4.10;;;4.40;99.90;;;;;;5017257;28;20280;-61
2023/03/07 06:46:43;;;;;;;5.73;4.13;;;4.50;99.90;;;;;;5002748;28;20200;-61
2023/03/07 06:49:10;;;;;;;5.50;3.73;;;4.50;99.90;;;;;;5001203;28;20196;-61
2023/03/07 06:51:37;;;;;;;6.07;4.60;;;4.50;99.90;;;;;;5018194;28;20201;-62
2023/03/07 06:54:04;;;;;;;8.60;5.57;;;4.50;99.90;;;;;;5006947;28;20277;-61
2023/03/07 06:56:33;;;;;;;9.83;6.20;;;4.40;99.90;;;;;;5016359;28;20236;-61
2023/03/07 06:59:00;;;;;;;8.23;6.17;;;4.40;99.90;;;;;;5013872;28;20201;-61
2023/03/07 07:01:27;;;;;;;6.87;5.53;;;4.40;99.90;;;;;;5015081;28;20611;-62
2023/03/07 07:03:54;;;;;;;11.67;7.60;;;4.40;99.90;;;;;;4999482;28;20810;-63
2023/03/07 07:06:20;;;;;;;9.57;7.23;;;4.30;99.90;;;;;;5020141;28;20918;-62
2023/03/07 07:08:47;;;;;;;11.10;8.37;;;4.30;99.90;;;;;;5019666;28;20627;-62
2023/03/07 07:11:14;;;;;;;12.47;8.17;;;4.20;99.90;;;;;;5020764;28;20935;-63
2023/03/07 07:13:41;;;;;;;11.53;8.53;;;4.30;99.90;;;;;;5016531;28;20216;-62
2023/03/07 07:16:08;;;;;;;10.10;8.00;;;4.20;99.90;;;;;;5016137;28;20329;-62
2023/03/07 07:18:35;;;;;;;9.30;7.97;;;4.20;99.90;;;;;;5016761;28;20233;-62
2023/03/07 07:21:04;;;;;;;9.20;6.90;;;4.20;99.90;;;;;;5018344;28;20245;-65
2023/03/07 07:23:31;;;;;;;7.90;5.67;;;4.00;99.90;;;;;;5019219;28;20288;-63
2023/03/07 07:25:57;;;;;;;6.63;5.63;;;3.90;99.90;;;;;;5015360;28;20615;-62
2023/03/07 07:28:24;;;;;;;5.90;4.27;;;3.90;99.90;;;;;;5014982;28;20243;-62
2023/03/07 07:30:51;;;;;;;6.33;4.07;;;3.80;99.90;;;;;;5013044;28;20209;-62
2023/03/07 07:33:19;;;;;;;5.50;3.33;;;3.70;99.90;;;;;;5020396;28;20612;-62
2023/03/07 07:35:46;;;;;;;3.83;2.83;;;3.60;99.90;;;;;;5018361;28;20205;-62
2023/03/07 07:38:13;;;;;;;2.57;2.33;;;3.60;99.90;;;;;;5017491;28;20212;-62
2023/03/07 07:40:40;;;;;;;4.03;2.20;;;3.60;99.90;;;;;;5016963;28;20288;-62
2023/03/07 07:43:15;;;;;;;3.70;1.87;;;3.70;99.90;;;;;;5011347;28;20214;-62
2023/03/07 07:45:42;;;;;;;2.87;1.97;;;3.70;99.90;;;;;;5018018;28;20193;-62
2023/03/07 07:48:09;;;;;;;2.83;2.00;;;3.70;99.90;;;;;;5017950;28;20666;-62
2023/03/07 07:50:36;;;;;;;9.60;4.87;;;3.80;99.90;;;;;;5020274;28;20841;-62
2023/03/07 07:53:02;;;;;;;5.07;3.70;;;3.80;99.90;;;;;;5016677;28;21780;-62
2023/03/07 07:55:29;;;;;;;6.93;3.93;;;3.70;99.90;;;;;;4999222;28;20241;-62
2023/03/07 07:57:56;;;;;;;2.23;2.03;;;3.80;99.90;;;;;;5016025;28;20204;-62
2023/03/07 08:00:24;;;;;;;2.90;2.17;;;3.70;99.90;;;;;;4999810;28;20307;-62
2023/03/07 08:02:50;;;;;;;3.80;1.67;;;3.60;99.90;;;;;;5020227;28;20307;-62
2023/03/07 08:05:19;;;;;;;2.77;1.83;;;3.50;99.90;;;;;;5016676;28;20196;-62
2023/03/07 08:07:46;;;;;;;2.30;1.60;;;3.50;99.90;;;;;;5016173;28;20775;-62
2023/03/07 08:10:14;;;;;;;2.50;1.80;;;3.50;99.90;;;;;;5011886;28;20205;-62
2023/03/07 08:12:50;;;;;;;3.17;2.00;;;3.60;99.90;;;;;;5016012;28;20676;-62
2023/03/07 08:15:20;;;;;;;3.30;2.60;;;3.60;99.90;;;;;;5016336;28;20201;-62
2023/03/07 08:17:49;;;;;;;4.57;3.20;;;3.60;99.90;;;;;;5016134;28;20763;-61
2023/03/07 08:20:21;;;;;;;6.80;4.60;;;3.60;99.90;;;;;;5020030;28;20205;-61
2023/03/07 08:22:49;;;;;;;5.43;3.57;;;3.60;99.90;;;;;;5005400;28;20720;-61
2023/03/07 08:25:20;;;;;;;6.27;4.00;;;3.50;99.90;;;;;;5016234;28;20291;-62
2023/03/07 08:27:51;;;;;;;7.20;4.53;;;3.50;99.90;;;;;;5014736;28;20669;-61
2023/03/07 08:30:18;;;;;;;7.60;3.93;;;3.60;99.90;;;;;;5018356;28;20275;-61
2023/03/07 08:32:49;;;;;;;4.23;3.23;;;3.60;99.90;;;;;;5016154;28;20205;-61
2023/03/07 08:35:16;;;;;;;4.47;3.40;;;3.60;99.90;;;;;;5015234;28;20284;-61
2023/03/07 08:37:43;;;;;;;2.60;2.40;;;3.60;99.90;;;;;;5018001;28;20475;-61
2023/03/07 08:40:11;;;;;;;2.23;2.03;;;3.40;99.90;;;;;;5019208;28;20751;-61
2023/03/07 08:42:38;;;;;;;2.17;1.63;;;3.50;99.90;;;;;;5015100;28;20227;-61
2023/03/07 08:45:05;;;;;;;3.30;2.10;;;3.10;99.90;;;;;;5016614;28;20259;-60
2023/03/07 08:47:32;;;;;;;2.57;2.37;;;3.30;99.90;;;;;;5016604;28;20307;-61
2023/03/07 08:49:59;;;;;;;1.70;1.60;;;3.50;99.90;;;;;;5019569;28;20696;-61
2023/03/07 08:52:25;;;;;;;2.83;2.20;;;3.50;99.90;;;;;;5016379;28;20210;-61
2023/03/07 08:54:52;;;;;;;2.70;1.43;;;3.50;99.90;;;;;;5015860;28;20204;-61
2023/03/07 08:57:19;;;;;;;1.63;1.37;;;3.40;99.90;;;;;;5015492;28;20315;-61
2023/03/07 08:59:46;;;;;;;1.87;1.30;;;3.10;99.90;;;;;;5019715;28;20325;-61
2023/03/07 09:02:13;;;;;;;2.03;1.50;;;2.90;99.90;;;;;;5016125;28;20257;-61
2023/03/07 09:04:40;;;;;;;2.97;1.83;;;2.70;99.90;;;;;;5009165;28;20563;-61
2023/03/07 09:07:07;;;;;;;1.90;1.50;;;2.50;99.90;;;;;;5018208;28;20642;-61
2023/03/07 09:09:34;;;;;;;3.20;1.80;;;2.30;99.90;;;;;;5001501;28;20288;-61
2023/03/07 09:12:00;;;;;;;1.80;1.60;;;2.10;99.90;;;;;;5019815;28;20715;-61
2023/03/07 09:14:27;;;;;;;2.73;1.90;;;2.20;99.90;;;;;;5020054;28;20212;-62
2023/03/07 09:16:54;;;;;;;2.07;1.50;;;2.20;99.90;;;;;;5013560;28;20209;-61
2023/03/07 09:19:22;;;;;;;4.80;2.20;;;2.10;99.90;;;;;;5022934;28;20718;-61
2023/03/07 09:21:49;;;;;;;2.33;1.80;;;2.40;99.90;;;;;;5020405;28;20261;-60
2023/03/07 09:24:16;;;;;;;3.10;2.17;;;2.30;99.90;;;;;;5019938;28;20197;-61
2023/03/07 09:26:43;;;;;;;2.30;1.77;;;2.20;99.90;;;;;;5019109;28;20987;-60
2023/03/07 09:29:10;;;;;;;3.27;2.20;;;2.20;99.90;;;;;;5018749;28;20762;-60
2023/03/07 09:31:36;;;;;;;2.30;1.83;;;2.20;99.90;;;;;;5018693;28;20295;-60
2023/03/07 09:34:04;;;;;;;3.70;2.00;;;2.40;99.90;;;;;;5019251;28;20621;-61
2023/03/07 09:36:31;;;;;;;3.63;2.00;;;2.40;99.90;;;;;;5020989;28;20728;-62
2023/03/07 09:38:58;;;;;;;1.90;1.70;;;2.60;99.90;;;;;;5022314;28;20243;-61
2023/03/07 09:41:46;;;;;;;2.87;1.60;;;2.50;99.90;;;;;;5019861;28;20220;-61
2023/03/07 09:44:31;;;;;;;2.87;2.27;;;2.40;99.90;;;;;;5018131;28;20204;-61
2023/03/07 09:47:27;;;;;;;2.20;1.97;;;2.50;99.90;;;;;;5021601;28;20266;-61
2023/03/07 09:49:54;;;;;;;3.77;2.30;;;2.40;99.90;;;;;;5019851;28;20232;-61
2023/03/07 09:52:27;;;;;;;2.57;2.00;;;2.50;99.90;;;;;;5021556;28;20284;-61
2023/03/07 09:55:00;;;;;;;3.20;2.40;;;2.60;99.90;;;;;;5020535;28;20641;-61
2023/03/07 09:57:49;;;;;;;3.00;2.33;;;2.60;99.90;;;;;;5002451;28;20278;-61
2023/03/07 10:00:21;;;;;;;2.83;2.10;;;2.50;99.90;;;;;;5018875;28;20661;-57
2023/03/07 10:03:06;;;;;;;2.90;2.37;;;2.60;99.90;;;;;;5011264;28;20818;-57
2023/03/07 10:05:49;;;;;;;2.00;1.60;;;2.60;99.90;;;;;;5011294;28;20659;-57
2023/03/07 10:08:22;;;;;;;3.17;2.17;;;2.50;99.90;;;;;;5020825;28;20255;-57
2023/03/07 10:11:18;;;;;;;4.63;2.03;;;2.60;99.90;;;;;;5019393;28;20259;-58
2023/03/07 10:13:57;;;;;;;3.27;2.53;;;2.80;99.90;;;;;;5020777;28;20291;-56
2023/03/07 10:16:42;;;;;;;3.50;2.40;;;2.70;99.90;;;;;;5017632;28;20296;-58
2023/03/07 10:19:18;;;;;;;5.87;2.33;;;2.90;99.90;;;;;;5021076;28;20221;-58
2023/03/07 10:22:09;;;;;;;3.30;2.70;;;2.90;99.90;;;;;;5017492;28;20226;-57
2023/03/07 10:24:59;;;;;;;4.67;2.67;;;3.00;99.90;;;;;;5017843;28;20614;-57
2023/03/07 10:27:29;;;;;;;6.53;3.30;;;3.00;99.90;;;;;;5017572;28;20201;-58
2023/03/07 10:29:59;;;;;;;4.13;3.43;;;3.30;99.90;;;;;;5000718;28;20229;-57
2023/03/07 10:32:40;;;;;;;4.20;2.97;;;3.50;99.90;;;;;;5002482;28;20291;-57
2023/03/07 10:35:10;;;;;;;3.60;2.53;;;3.60;99.90;;;;;;5016092;28;20295;-59
2023/03/07 10:37:51;;;;;;;3.17;2.77;;;3.20;99.90;;;;;;5019141;28;20684;-60
2023/03/07 10:40:33;;;;;;;3.60;2.23;;;3.20;99.90;;;;;;5019302;28;20198;-60
2023/03/07 10:43:00;;;;;;;3.77;2.43;;;3.30;99.90;;;;;;5005528;28;20313;-57
2023/03/07 10:45:29;;;;;;;2.63;2.20;;;3.20;99.90;;;;;;5014473;28;20669;-57
2023/03/07 10:48:08;;;;;;;3.07;2.40;;;3.20;99.90;;;;;;5004324;28;20664;-58
2023/03/07 10:50:54;;;;;;;2.77;1.93;;;3.30;99.90;;;;;;5019596;28;20201;-58
2023/03/07 10:53:32;;;;;;;3.10;2.03;;;3.30;99.90;;;;;;5020778;28;20939;-58
2023/03/07 10:56:12;;;;;;;3.00;2.10;;;3.30;99.90;;;;;;5000958;28;20197;-57
2023/03/07 10:58:58;;;;;;;3.67;2.47;;;3.30;99.90;;;;;;5003111;28;20638;-57
2023/03/07 11:01:26;;;;;;;4.37;2.60;;;3.30;99.90;;;;;;5018185;28;20236;-57
2023/03/07 11:03:58;;;;;;;3.80;2.70;;;3.10;99.90;;;;;;5018251;28;20561;-58
2023/03/07 11:06:38;;;;;;;2.97;2.30;;;3.30;99.90;;;;;;5016766;28;20309;-58
2023/03/07 11:09:35;;;;;;;3.20;2.50;;;3.50;99.90;;;;;;5017593;28;20209;-62
2023/03/07 11:12:05;;;;;;;5.07;3.00;;;3.60;99.90;;;;;;5017689;28;20633;-61
2023/03/07 11:14:52;;;;;;;2.90;2.37;;;3.70;99.90;;;;;;5018716;28;20237;-61
2023/03/07 11:17:21;;;;;;;3.70;2.70;;;3.60;99.90;;;;;;5017081;28;20657;-62
2023/03/07 11:19:53;;;;;;;4.50;2.70;;;3.60;99.90;;;;;;5018560;28;20611;-62
2023/03/07 11:22:34;;;;;;;4.53;3.30;;;3.60;99.90;;;;;;5018394;28;20687;-62
2023/03/07 11:25:13;;;;;;;4.17;3.27;;;3.50;99.90;;;;;;5018226;28;20689;-62
2023/03/07 11:27:53;;;;;;;4.47;3.37;;;3.60;99.90;;;;;;5017420;28;20720;-61
2023/03/07 11:30:31;;;;;;;7.30;4.43;;;3.50;99.90;;;;;;5017763;28;20753;-62
2023/03/07 11:33:06;;;;;;;7.57;5.07;;;3.60;99.90;;;;;;5020448;28;20238;-62
2023/03/07 11:36:00;;;;;;;7.40;4.37;;;3.60;99.90;;;;;;5000679;28;20625;-61
2023/03/07 11:39:12;;;;;;;6.87;4.57;;;3.60;99.90;;;;;;5017907;28;20211;-62
2023/03/07 11:41:46;;;;;;;6.57;4.73;;;3.70;99.90;;;;;;5016412;28;20210;-62
2023/03/07 11:44:31;;;;;;;6.83;4.70;;;3.60;99.90;;;;;;5000496;28;20694;-62
2023/03/07 11:47:12;;;;;;;6.47;4.43;;;3.70;99.90;;;;;;5017679;28;20214;-62
2023/03/07 11:49:56;;;;;;;5.87;3.97;;;3.70;99.90;;;;;;5019016;28;20614;-61
2023/03/07 11:52:35;;;;;;;6.33;4.50;;;3.80;99.90;;;;;;5019033;28;20209;-61
2023/03/07 11:55:24;;;;;;;4.43;3.50;;;4.00;99.90;;;;;;5016461;28;20252;-61
2023/03/07 11:58:01;;;;;;;5.17;3.40;;;3.80;99.90;;;;;;5013932;28;20232;-61
2023/03/07 12:00:57;;;;;;;5.03;3.50;;;3.70;99.90;;;;;;5017416;28;20307;-61
2023/03/07 12:03:52;;;;;;;7.10;3.83;;;3.80;99.90;;;;;;5005899;28;20234;-63
2023/03/07 12:06:34;;;;;;;5.43;3.47;;;3.90;99.90;;;;;;5013323;28;20275;-63
2023/03/07 12:09:23;;;;;;;5.20;3.40;;;4.10;99.90;;;;;;5014346;28;20206;-64
2023/03/07 12:12:15;;;;;;;4.93;3.37;;;3.90;99.90;;;;;;5011885;28;20607;-65
2023/03/07 12:15:36;;;;;;;6.73;3.80;;;4.00;99.90;;;;;;4983430;28;22521;-64
2023/03/07 12:18:08;;;;;;;5.53;3.70;;;4.10;99.90;;;;;;4933588;28;20740;-65
2023/03/07 12:21:05;;;;;;;7.90;4.67;;;4.00;99.90;;;;;;4938113;28;20219;-65
2023/03/07 12:23:37;;;;;;;7.27;4.40;;;4.10;99.90;;;;;;4946085;28;20215;-65
2023/03/07 12:26:26;;;;;;;7.70;4.90;;;4.30;99.90;;;;;;4942697;28;20307;-64
2023/03/07 12:29:02;;;;;;;8.30;6.10;;;4.10;99.90;;;;;;4943327;28;20208;-63
2023/03/07 12:31:43;;;;;;;6.00;4.77;;;3.90;99.90;;;;;;4946578;28;20241;-64
2023/03/07 12:34:14;;;;;;;7.70;5.70;;;3.90;99.90;;;;;;4946110;28;20548;-64
2023/03/07 12:36:50;;;;;;;8.10;6.07;;;3.80;99.90;;;;;;4942674;28;20284;-65
2023/03/07 12:39:54;;;;;;;10.10;6.30;;;3.70;99.90;;;;;;4939051;28;20298;-64
2023/03/07 12:42:43;;;;;;;9.63;6.77;;;3.60;99.90;;;;;;4897960;28;20311;-65
2023/03/07 12:45:19;;;;;;;9.07;6.37;;;3.80;99.90;;;;;;4938999;28;20747;-68
2023/03/07 12:48:12;;;;;;;11.87;8.10;;;3.80;99.90;;;;;;4947482;29;20297;-64
2023/03/07 12:51:02;;;;;;;11.93;8.50;;;3.90;99.90;;;;;;4945569;28;20648;-63
2023/03/07 12:53:41;;;;;;;11.63;8.07;;;3.90;99.90;;;;;;5013709;28;20232;-64
2023/03/07 12:56:11;;;;;;;12.23;8.07;;;3.90;99.90;;;;;;5011287;28;20264;-64
2023/03/07 12:58:40;;;;;;;10.73;7.77;;;4.10;99.90;;;;;;5014706;28;20242;-64
2023/03/07 13:01:24;;;;;;;11.43;8.13;;;4.10;99.90;;;;;;5012429;28;20278;-64
2023/03/07 13:04:11;;;;;;;12.53;8.87;;;4.20;99.90;;;;;;5010838;28;20359;-64
2023/03/07 13:06:40;;;;;;;12.40;8.20;;;4.20;99.90;;;;;;5011325;28;20203;-64
2023/03/07 13:09:23;;;;;;;13.70;8.50;;;4.30;99.90;;;;;;5014620;28;20605;-64
2023/03/07 13:12:28;;;;;;;7.23;5.53;;;4.50;99.90;;;;;;5009355;28;20198;-64
2023/03/07 13:15:04;;;;;;;5.33;4.20;;;4.40;99.90;;;;;;4972829;28;20272;-64
2023/03/07 13:17:33;;;;;;;6.27;3.23;;;4.40;99.90;;;;;;5013886;28;20337;-65
2023/03/07 13:20:14;;;;;;;5.37;3.30;;;4.40;99.90;;;;;;5004210;28;20579;-65